Terminal Aerodrome Forecast
Issued by NWS

Home | Current Version | Previous Version | Text Only | Print | Product List | Glossary Off
Versions: 1 2 3 4 5 6 7 8 9 10 11 12 13 14 15 16 17 18 19 20 21 22 23 24 25 26 27 28

879
FTUS43 KABR 261126
TAFATY
TAF
KATY 261126Z 2612/2712 19010KT P6SM SCT250 WS020/22035KT
     FM261500 19009KT P6SM BKN250
     FM262200 19009KT P6SM VCTS SCT060CB BKN250
     FM270000 19009KT P6SM BKN250
     FM270400 16006KT P6SM BKN250
     FM270700 VRB05KT P6SM VCTS SCT040CB BKN150
     FM271000 VRB05KT P6SM OVC060=

USA.gov is the U.S. government's official web portal to all federal, state and local government web resources and services.